createdAt,value
2018-11-06T00:01:07.873Z,19.31
2018-11-06T00:02:08.501Z,19.29
2018-11-06T00:03:53.590Z,19.29
2018-11-06T00:04:54.168Z,19.19
2018-11-06T00:06:39.259Z,19.21
2018-11-06T00:07:39.838Z,19.16
2018-11-06T00:09:25.017Z,19.12
2018-11-06T00:10:25.509Z,19.22
2018-11-06T00:12:10.654Z,19.24
2018-11-06T00:13:11.230Z,19.24
2018-11-06T00:14:56.320Z,19.26
2018-11-06T00:15:56.945Z,19.21
2018-11-06T00:17:42.034Z,19.16
2018-11-06T00:18:42.612Z,19.19
2018-11-06T00:20:27.755Z,19.19
2018-11-06T00:21:28.330Z,19.33
2018-11-06T00:23:13.471Z,19.22
2018-11-06T00:24:14.048Z,19.12
2018-11-06T00:25:59.141Z,19.24
2018-11-06T00:26:59.768Z,19.15
2018-11-06T00:28:44.850Z,19.08
2018-11-06T00:29:45.429Z,19.11
2018-11-06T00:31:30.647Z,19.07
2018-11-06T00:32:31.300Z,19.04
2018-11-06T00:34:16.749Z,18.98
2018-11-06T00:35:17.262Z,18.90
2018-11-06T00:37:02.352Z,18.99
2018-11-06T00:38:02.930Z,18.83
2018-11-06T00:39:48.019Z,18.83
2018-11-06T00:40:48.598Z,18.78
2018-11-06T00:42:33.687Z,18.73
2018-11-06T00:43:34.266Z,18.73
2018-11-06T00:45:19.356Z,18.62
2018-11-06T00:46:19.934Z,18.62
2018-11-06T00:48:05.075Z,18.58
2018-11-06T00:49:05.651Z,18.62
2018-11-06T00:50:50.743Z,18.53
2018-11-06T00:51:51.319Z,18.55
2018-11-06T00:53:36.462Z,18.58
2018-11-06T00:54:37.038Z,18.60
2018-11-06T00:56:22.190Z,18.62
2018-11-06T00:57:22.755Z,18.53
2018-11-06T00:59:07.847Z,18.56
2018-11-06T01:00:08.633Z,18.53
2018-11-06T01:01:53.773Z,18.58
2018-11-06T01:02:54.352Z,18.47
2018-11-06T01:04:39.589Z,18.47
2018-11-06T01:05:40.191Z,18.52
2018-11-06T01:07:25.300Z,18.53
2018-11-06T01:08:25.876Z,18.56
2018-11-06T01:10:10.967Z,18.43
2018-11-06T01:11:11.547Z,18.47
2018-11-06T01:12:56.785Z,18.47
2018-11-06T01:13:57.413Z,18.38
2018-11-06T01:15:42.502Z,18.40
2018-11-06T01:16:43.078Z,18.44
2018-11-06T01:18:28.176Z,18.44
2018-11-06T01:19:28.747Z,18.40
2018-11-06T01:21:13.886Z,18.43
2018-11-06T01:22:14.462Z,18.41
2018-11-06T01:23:59.550Z,18.38
2018-11-06T01:25:00.128Z,18.44
2018-11-06T01:26:45.219Z,18.41
2018-11-06T01:27:45.806Z,18.45
2018-11-06T01:29:30.930Z,18.47
2018-11-06T01:30:31.510Z,18.40
2018-11-06T01:32:16.655Z,18.34
2018-11-06T01:33:17.222Z,18.44
2018-11-06T01:35:02.311Z,18.38
2018-11-06T01:36:02.890Z,18.37
2018-11-06T01:37:48.076Z,18.35
2018-11-06T01:38:48.648Z,18.41
2018-11-06T01:40:33.737Z,18.35
2018-11-06T01:41:34.364Z,18.40
2018-11-06T01:43:19.452Z,18.31
2018-11-06T01:44:20.032Z,18.31
2018-11-06T01:46:05.161Z,18.38
2018-11-06T01:47:05.738Z,18.29
2018-11-06T01:48:50.828Z,18.25
2018-11-06T01:49:51.405Z,18.33
2018-11-06T01:51:36.550Z,18.22
2018-11-06T01:52:37.119Z,18.25
2018-11-06T01:54:22.208Z,18.25
2018-11-06T01:55:22.787Z,18.22
2018-11-06T01:57:07.876Z,18.20
2018-11-06T01:58:08.453Z,18.18
2018-11-06T01:59:53.593Z,18.23
2018-11-06T02:00:54.171Z,18.23
2018-11-06T02:02:39.310Z,18.22
2018-11-06T02:03:39.893Z,18.18
2018-11-06T02:05:25.025Z,18.20
2018-11-06T02:06:25.600Z,18.22
2018-11-06T02:08:10.688Z,18.29
2018-11-06T02:09:11.272Z,18.26
2018-11-06T02:10:56.359Z,18.28
2018-11-06T02:11:56.933Z,18.25
2018-11-06T02:13:42.070Z,18.25
2018-11-06T02:14:42.647Z,18.25
2018-11-06T02:16:27.738Z,18.29
2018-11-06T02:17:28.313Z,18.20
2018-11-06T02:19:13.405Z,18.20
2018-11-06T02:20:13.985Z,18.11
2018-11-06T02:21:59.077Z,18.11
2018-11-06T02:22:59.656Z,18.25
2018-11-06T02:24:44.793Z,18.19
2018-11-06T02:25:45.369Z,18.07
2018-11-06T02:27:30.460Z,18.16
2018-11-06T02:28:31.036Z,18.26
2018-11-06T02:30:16.130Z,18.11
2018-11-06T02:31:16.747Z,18.07
2018-11-06T02:33:01.889Z,18.15
2018-11-06T02:34:02.467Z,18.15
2018-11-06T02:35:47.603Z,18.11
2018-11-06T02:36:48.179Z,18.08
2018-11-06T02:38:33.269Z,18.13
2018-11-06T02:39:33.846Z,18.10
2018-11-06T02:41:18.937Z,18.10
2018-11-06T02:42:19.514Z,18.07
2018-11-06T02:44:04.704Z,18.10
2018-11-06T02:45:05.322Z,18.13
2018-11-06T02:46:50.369Z,18.03
2018-11-06T02:47:50.934Z,18.04
2018-11-06T02:49:36.024Z,18.01
2018-11-06T02:50:36.600Z,17.94
2018-11-06T02:52:21.690Z,18.05
2018-11-06T02:53:22.269Z,17.97
2018-11-06T02:55:07.407Z,18.01
2018-11-06T02:56:08.042Z,18.00
2018-11-06T02:57:53.124Z,17.98
2018-11-06T02:58:53.701Z,17.98
2018-11-06T03:00:38.838Z,17.95
2018-11-06T03:01:39.415Z,17.98
2018-11-06T03:03:24.548Z,17.98
2018-11-06T03:04:25.128Z,18.01
2018-11-06T03:06:10.221Z,17.97
2018-11-06T03:07:10.793Z,18.01
2018-11-06T03:08:55.892Z,17.97
2018-11-06T03:09:56.462Z,17.98
2018-11-06T03:11:41.643Z,18.03
2018-11-06T03:12:42.225Z,17.95
2018-11-06T03:14:27.360Z,18.00
2018-11-06T03:15:27.934Z,17.97
2018-11-06T03:17:13.074Z,17.98
2018-11-06T03:18:13.650Z,17.89
2018-11-06T03:19:58.741Z,18.07
2018-11-06T03:20:59.321Z,17.97
2018-11-06T03:22:44.408Z,17.97
2018-11-06T03:23:44.983Z,18.03
2018-11-06T03:25:30.075Z,17.98
2018-11-06T03:26:30.651Z,18.03
2018-11-06T03:28:15.743Z,18.15
2018-11-06T03:29:16.319Z,18.10
2018-11-06T03:31:01.361Z,18.15
2018-11-06T03:32:02.003Z,17.95
2018-11-06T03:33:47.174Z,18.03
2018-11-06T03:34:47.753Z,18.00
2018-11-06T03:36:32.882Z,17.98
2018-11-06T03:37:33.457Z,17.98
2018-11-06T03:39:18.548Z,18.04
2018-11-06T03:40:19.123Z,17.94
2018-11-06T03:42:04.211Z,17.97
2018-11-06T03:43:04.792Z,17.92
2018-11-06T03:44:49.878Z,17.92
2018-11-06T03:45:50.455Z,17.98
2018-11-06T03:47:35.546Z,18.01
2018-11-06T03:48:36.123Z,17.97
2018-11-06T03:50:21.312Z,17.95
2018-11-06T03:51:21.937Z,17.92
2018-11-06T03:53:07.027Z,17.92
2018-11-06T03:54:07.608Z,17.97
2018-11-06T03:55:52.747Z,17.98
2018-11-06T03:56:53.322Z,17.95
2018-11-06T03:58:38.412Z,17.95
2018-11-06T03:59:38.988Z,17.94
2018-11-06T04:01:24.080Z,17.98
2018-11-06T04:02:24.655Z,17.95
2018-11-06T04:04:09.747Z,18.00
2018-11-06T04:05:10.322Z,17.98
2018-11-06T04:06:55.464Z,17.97
2018-11-06T04:07:56.083Z,17.97
2018-11-06T04:09:41.183Z,17.95
2018-11-06T04:10:41.794Z,17.95
2018-11-06T04:12:26.882Z,17.95
2018-11-06T04:13:27.512Z,18.00
2018-11-06T04:15:12.599Z,18.05
2018-11-06T04:16:13.217Z,18.08
2018-11-06T04:17:58.357Z,18.07
2018-11-06T04:18:58.934Z,18.07
2018-11-06T04:20:44.036Z,18.08
2018-11-06T04:21:44.604Z,18.13
2018-11-06T04:23:29.644Z,18.13
2018-11-06T04:24:30.216Z,18.03
2018-11-06T04:26:15.306Z,18.10
2018-11-06T04:27:15.882Z,18.07
2018-11-06T04:29:01.023Z,18.13
2018-11-06T04:30:01.601Z,18.05
2018-11-06T04:31:46.790Z,18.05
2018-11-06T04:32:47.368Z,18.10
2018-11-06T04:34:32.456Z,18.22
2018-11-06T04:35:33.033Z,18.13
2018-11-06T04:37:18.125Z,18.22
2018-11-06T04:38:18.701Z,18.15
2018-11-06T04:40:03.794Z,18.08
2018-11-06T04:41:04.369Z,18.08
2018-11-06T04:42:49.460Z,18.20
2018-11-06T04:43:50.078Z,18.08
2018-11-06T04:45:35.220Z,18.10
2018-11-06T04:46:35.797Z,18.10
2018-11-06T04:48:20.887Z,18.05
2018-11-06T04:49:21.464Z,18.07
2018-11-06T04:51:06.772Z,18.07
2018-11-06T04:52:07.344Z,18.03
2018-11-06T04:53:52.384Z,18.00
2018-11-06T04:54:52.956Z,18.07
2018-11-06T04:56:38.047Z,18.00
2018-11-06T04:57:38.665Z,18.00
2018-11-06T04:59:23.755Z,17.97
2018-11-06T05:00:24.331Z,17.95
2018-11-06T05:02:09.520Z,17.98
2018-11-06T05:03:09.999Z,18.01
2018-11-06T05:04:55.140Z,18.03
2018-11-06T05:05:55.717Z,18.01
2018-11-06T05:07:40.856Z,17.97
2018-11-06T05:08:41.432Z,17.97
2018-11-06T05:10:26.582Z,18.00
2018-11-06T05:11:27.148Z,18.08
2018-11-06T05:13:12.240Z,17.98
2018-11-06T05:14:12.830Z,17.98
2018-11-06T05:15:57.943Z,17.98
2018-11-06T05:16:58.518Z,18.00
2018-11-06T05:18:43.660Z,17.97
2018-11-06T05:19:44.280Z,17.98
2018-11-06T05:21:29.368Z,18.00
2018-11-06T05:22:29.993Z,17.98
2018-11-06T05:24:15.083Z,17.97
2018-11-06T05:25:15.859Z,17.98
2018-11-06T05:27:00.900Z,17.95
2018-11-06T05:28:01.475Z,17.94
2018-11-06T05:29:46.565Z,17.92
2018-11-06T05:30:47.140Z,17.95
2018-11-06T05:32:32.186Z,17.89
2018-11-06T05:33:32.756Z,17.87
2018-11-06T05:35:17.795Z,17.89
2018-11-06T05:36:18.413Z,17.80
2018-11-06T05:38:03.499Z,17.85
2018-11-06T05:39:04.183Z,17.83
2018-11-06T05:40:49.220Z,17.90
2018-11-06T05:41:49.791Z,17.83
2018-11-06T05:43:34.879Z,17.82
2018-11-06T05:44:35.456Z,17.90
2018-11-06T05:46:20.597Z,17.83
2018-11-06T05:47:21.172Z,17.90
2018-11-06T05:49:06.312Z,17.90
2018-11-06T05:50:06.889Z,17.87
2018-11-06T05:51:51.977Z,17.87
2018-11-06T05:52:52.554Z,17.85
2018-11-06T05:54:37.695Z,17.90
2018-11-06T05:55:38.272Z,17.82
2018-11-06T05:57:23.359Z,17.87
2018-11-06T05:58:23.938Z,17.92
2018-11-06T06:00:09.077Z,17.85
2018-11-06T06:01:09.653Z,17.79
2018-11-06T06:02:54.740Z,17.89
2018-11-06T06:03:55.316Z,17.78
2018-11-06T06:05:40.456Z,17.80
2018-11-06T06:06:41.033Z,17.82
2018-11-06T06:08:26.176Z,17.80
2018-11-06T06:09:26.750Z,17.74
2018-11-06T06:11:11.904Z,17.76
2018-11-06T06:12:12.420Z,17.72
2018-11-06T06:13:57.506Z,17.78
2018-11-06T06:14:58.083Z,17.72
2018-11-06T06:16:43.255Z,17.72
2018-11-06T06:17:43.799Z,17.76
2018-11-06T06:19:28.888Z,17.72
2018-11-06T06:20:29.465Z,17.71
2018-11-06T06:22:14.505Z,17.70
2018-11-06T06:23:15.079Z,17.68
2018-11-06T06:25:00.223Z,17.72
2018-11-06T06:26:00.841Z,17.71
2018-11-06T06:27:45.981Z,17.72
2018-11-06T06:28:46.569Z,17.74
2018-11-06T06:30:31.747Z,17.76
2018-11-06T06:31:32.425Z,17.71
2018-11-06T06:33:17.613Z,17.68
2018-11-06T06:34:18.196Z,17.65
2018-11-06T06:36:03.277Z,17.65
2018-11-06T06:37:03.854Z,17.71
2018-11-06T06:38:49.002Z,17.72
2018-11-06T06:39:49.535Z,17.71
2018-11-06T06:41:34.562Z,17.68
2018-11-06T06:42:35.135Z,17.68
2018-11-06T06:44:20.229Z,17.65
2018-11-06T06:45:20.805Z,17.68
2018-11-06T06:47:05.897Z,17.68
2018-11-06T06:48:06.523Z,17.65
2018-11-06T06:49:51.673Z,17.64
2018-11-06T06:50:52.289Z,17.70
2018-11-06T06:52:37.328Z,17.65
2018-11-06T06:53:37.904Z,17.64
2018-11-06T06:55:23.037Z,17.63
2018-11-06T06:56:23.661Z,17.64
2018-11-06T06:58:08.743Z,17.65
2018-11-06T06:59:09.319Z,17.64
2018-11-06T07:00:54.369Z,17.67
2018-11-06T07:01:54.976Z,17.63
2018-11-06T07:03:40.066Z,17.63
2018-11-06T07:04:40.642Z,17.71
2018-11-06T07:06:25.683Z,17.68
2018-11-06T07:07:26.256Z,17.59
2018-11-06T07:09:11.488Z,17.59
2018-11-06T07:10:12.062Z,17.67
2018-11-06T07:11:57.201Z,17.64
2018-11-06T07:12:57.849Z,17.64
2018-11-06T07:14:42.867Z,17.70
2018-11-06T07:15:43.443Z,17.56
2018-11-06T07:17:28.534Z,17.65
2018-11-06T07:18:29.116Z,17.67
2018-11-06T07:20:14.203Z,17.63
2018-11-06T07:21:14.778Z,17.64
2018-11-06T07:22:59.870Z,17.67
2018-11-06T07:24:00.444Z,17.72
2018-11-06T07:25:45.584Z,17.67
2018-11-06T07:26:46.160Z,17.67
2018-11-06T07:28:31.432Z,17.74
2018-11-06T07:29:31.980Z,17.68
2018-11-06T07:31:17.072Z,17.68
2018-11-06T07:32:17.707Z,17.68
2018-11-06T07:34:02.786Z,17.65
2018-11-06T07:35:03.483Z,17.72
2018-11-06T07:36:48.493Z,17.72
2018-11-06T07:37:49.069Z,17.70
2018-11-06T07:39:34.110Z,17.68
2018-11-06T07:40:34.708Z,17.67
2018-11-06T07:42:19.772Z,17.65
2018-11-06T07:43:20.347Z,17.68
2018-11-06T07:45:05.489Z,17.65
2018-11-06T07:46:06.116Z,17.74
2018-11-06T07:47:51.298Z,17.68
2018-11-06T07:48:51.871Z,17.67
2018-11-06T07:50:36.961Z,17.64
2018-11-06T07:51:37.537Z,17.56
2018-11-06T07:53:22.628Z,17.60
2018-11-06T07:54:23.203Z,17.51
2018-11-06T07:56:08.367Z,17.22
2018-11-06T07:57:08.868Z,17.20
2018-11-06T07:58:54.009Z,17.01
2018-11-06T07:59:54.588Z,17.05
2018-11-06T08:01:39.715Z,17.11
2018-11-06T08:02:40.291Z,17.20
2018-11-06T08:04:25.441Z,17.12
2018-11-06T08:05:26.006Z,17.14
2018-11-06T08:07:11.146Z,17.22
2018-11-06T08:08:11.775Z,17.26
2018-11-06T08:09:56.861Z,17.24
2018-11-06T08:10:57.438Z,17.31
2018-11-06T08:12:42.527Z,17.41
2018-11-06T08:13:43.104Z,17.42
2018-11-06T08:15:28.244Z,17.44
2018-11-06T08:16:28.823Z,17.57
2018-11-06T08:18:13.912Z,17.51
2018-11-06T08:19:14.529Z,17.59
2018-11-06T08:20:59.620Z,17.57
2018-11-06T08:22:00.346Z,17.57
2018-11-06T08:23:45.500Z,17.57
2018-11-06T08:24:46.061Z,17.67
2018-11-06T08:26:31.204Z,17.65
2018-11-06T08:27:31.831Z,17.64
2018-11-06T08:29:16.870Z,17.56
2018-11-06T08:30:17.482Z,17.54
2018-11-06T08:32:02.909Z,17.49
2018-11-06T08:33:03.148Z,17.56
2018-11-06T08:34:48.240Z,17.41
2018-11-06T08:35:48.815Z,17.42
2018-11-06T08:37:33.907Z,17.57
2018-11-06T08:38:34.482Z,17.45
2018-11-06T08:40:19.573Z,17.49
2018-11-06T08:41:20.204Z,17.46
2018-11-06T08:43:05.344Z,17.51
2018-11-06T08:44:05.920Z,17.49
2018-11-06T08:45:51.009Z,17.57
2018-11-06T08:46:51.585Z,17.56
2018-11-06T08:48:36.826Z,17.65
2018-11-06T08:49:37.402Z,17.57
2018-11-06T08:51:22.492Z,17.60
2018-11-06T08:52:23.067Z,17.63
2018-11-06T08:54:08.107Z,17.57
2018-11-06T08:55:08.683Z,17.46
2018-11-06T08:56:53.812Z,17.51
2018-11-06T08:57:54.388Z,17.49
2018-11-06T08:59:40.331Z,17.45
2018-11-06T09:00:40.906Z,17.46
2018-11-06T09:02:26.034Z,17.63
2018-11-06T09:03:26.580Z,17.52
2018-11-06T09:05:11.804Z,17.57
2018-11-06T09:06:12.379Z,17.63
2018-11-06T09:07:57.519Z,17.60
2018-11-06T09:08:58.165Z,17.67
2018-11-06T09:10:43.187Z,17.65
2018-11-06T09:11:43.762Z,17.65
2018-11-06T09:13:28.852Z,17.74
2018-11-06T09:14:29.429Z,17.70
2018-11-06T09:16:14.609Z,17.59
2018-11-06T09:17:15.185Z,17.57
2018-11-06T09:19:00.275Z,17.54
2018-11-06T09:20:00.855Z,17.54
2018-11-06T09:21:45.941Z,17.51
2018-11-06T09:22:46.566Z,17.51
2018-11-06T09:24:31.655Z,17.54
2018-11-06T09:25:32.232Z,17.52
2018-11-06T09:27:17.362Z,17.56
2018-11-06T09:28:17.995Z,17.44
2018-11-06T09:30:03.120Z,17.48
2018-11-06T09:31:03.810Z,17.42
2018-11-06T09:32:48.787Z,17.46
2018-11-06T09:33:49.362Z,17.41
2018-11-06T09:35:34.452Z,17.48
2018-11-06T09:36:35.079Z,17.42
2018-11-06T09:38:20.188Z,17.42
2018-11-06T09:39:20.745Z,17.46
2018-11-06T09:41:05.891Z,17.41
2018-11-06T09:42:06.460Z,17.42
2018-11-06T09:43:51.498Z,17.41
2018-11-06T09:44:52.119Z,17.44
2018-11-06T09:46:37.204Z,17.42
2018-11-06T09:47:37.831Z,17.45
2018-11-06T09:49:22.919Z,17.34
2018-11-06T09:50:23.501Z,17.42
2018-11-06T09:52:08.731Z,17.46
2018-11-06T09:53:09.252Z,17.52
2018-11-06T09:54:54.342Z,17.54
2018-11-06T09:55:54.918Z,17.42
2018-11-06T09:57:40.100Z,17.46
2018-11-06T09:58:40.675Z,17.45
2018-11-06T10:00:25.767Z,17.59
2018-11-06T10:01:26.382Z,17.51
2018-11-06T10:03:11.473Z,17.52
2018-11-06T10:04:12.057Z,17.56
2018-11-06T10:05:57.140Z,17.60
2018-11-06T10:06:58.034Z,17.54
2018-11-06T10:08:42.806Z,17.54
2018-11-06T10:09:43.431Z,17.59
2018-11-06T10:11:28.599Z,17.56
2018-11-06T10:12:29.093Z,17.56
2018-11-06T10:14:14.183Z,17.60
2018-11-06T10:15:14.759Z,17.59
2018-11-06T10:16:59.858Z,17.52
2018-11-06T10:18:00.428Z,17.52
2018-11-06T10:19:45.606Z,17.65
2018-11-06T10:20:46.182Z,17.63
2018-11-06T10:22:31.281Z,17.57
2018-11-06T10:23:31.847Z,17.59
2018-11-06T10:25:16.940Z,17.57
2018-11-06T10:26:17.516Z,17.51
2018-11-06T10:28:02.556Z,17.65
2018-11-06T10:29:03.181Z,17.64
2018-11-06T10:30:48.332Z,17.48
2018-11-06T10:31:48.859Z,17.49
2018-11-06T10:33:34.031Z,17.57
2018-11-06T10:34:34.606Z,17.56
2018-11-06T10:36:19.695Z,17.45
2018-11-06T10:37:20.273Z,17.49
2018-11-06T10:39:05.405Z,17.49
2018-11-06T10:40:05.981Z,17.60
2018-11-06T10:41:51.074Z,17.51
2018-11-06T10:42:51.741Z,17.57
2018-11-06T10:44:36.840Z,17.46
2018-11-06T10:45:37.558Z,17.41
2018-11-06T10:47:22.658Z,17.45
2018-11-06T10:48:23.268Z,17.46
2018-11-06T10:50:08.357Z,17.48
2018-11-06T10:51:08.934Z,17.48
2018-11-06T10:52:54.074Z,17.57
2018-11-06T10:53:54.651Z,17.59
2018-11-06T10:55:39.741Z,17.46
2018-11-06T10:56:40.367Z,17.48
2018-11-06T10:58:25.460Z,17.45
2018-11-06T10:59:26.033Z,17.46
2018-11-06T11:01:11.172Z,17.42
2018-11-06T11:02:11.751Z,17.49
2018-11-06T11:03:56.913Z,17.44
2018-11-06T11:04:57.452Z,17.48
2018-11-06T11:06:42.592Z,17.51
2018-11-06T11:07:43.175Z,17.51
2018-11-06T11:09:28.205Z,17.57
2018-11-06T11:10:28.783Z,17.54
2018-11-06T11:12:13.869Z,17.54
2018-11-06T11:13:14.478Z,17.49
2018-11-06T11:14:59.535Z,17.63
2018-11-06T11:16:00.111Z,17.57
2018-11-06T11:17:45.294Z,17.51
2018-11-06T11:18:45.877Z,17.51
2018-11-06T11:20:30.957Z,17.54
2018-11-06T11:21:31.524Z,17.54
2018-11-06T11:23:16.663Z,17.64
2018-11-06T11:24:17.289Z,17.49
2018-11-06T11:26:02.380Z,17.59
2018-11-06T11:27:02.999Z,17.49
2018-11-06T11:28:48.089Z,17.48
2018-11-06T11:29:48.669Z,17.51
2018-11-06T11:31:33.747Z,17.54
2018-11-06T11:32:34.321Z,17.52
2018-11-06T11:34:19.415Z,17.59
2018-11-06T11:35:19.986Z,17.63
2018-11-06T11:37:05.027Z,17.60
2018-11-06T11:38:05.601Z,17.56
2018-11-06T11:39:50.640Z,17.56
2018-11-06T11:40:51.221Z,17.59
2018-11-06T11:42:36.447Z,17.67
2018-11-06T11:43:37.073Z,17.60
2018-11-06T11:45:22.112Z,17.72
2018-11-06T11:46:22.698Z,17.64
2018-11-06T11:48:07.821Z,17.60
2018-11-06T11:49:08.438Z,17.64
2018-11-06T11:50:53.530Z,17.57
2018-11-06T11:51:54.111Z,17.49
2018-11-06T11:53:39.246Z,17.51
2018-11-06T11:54:39.822Z,17.41
2018-11-06T11:56:24.962Z,17.46
2018-11-06T11:57:25.538Z,17.46
2018-11-06T11:59:10.680Z,17.42
2018-11-06T12:00:11.370Z,17.45
2018-11-06T12:01:56.392Z,17.44
2018-11-06T12:02:56.968Z,17.45
2018-11-06T12:04:42.061Z,17.46
2018-11-06T12:05:42.637Z,17.41
2018-11-06T12:07:27.726Z,17.41
2018-11-06T12:08:28.302Z,17.31
2018-11-06T12:10:13.593Z,17.33
2018-11-06T12:11:14.169Z,17.33
2018-11-06T12:12:59.259Z,17.31
2018-11-06T12:13:59.836Z,17.29
2018-11-06T12:15:44.937Z,17.38
2018-11-06T12:16:45.502Z,17.27
2018-11-06T12:18:30.651Z,17.36
2018-11-06T12:19:31.265Z,17.27
2018-11-06T12:21:16.352Z,17.34
2018-11-06T12:22:16.978Z,17.36
2018-11-06T12:24:02.077Z,17.33
2018-11-06T12:25:02.830Z,17.31
2018-11-06T12:26:47.776Z,17.36
2018-11-06T12:27:48.397Z,17.39
2018-11-06T12:29:33.485Z,17.39
2018-11-06T12:30:34.161Z,17.34
2018-11-06T12:32:19.454Z,17.38
2018-11-06T12:33:20.066Z,17.29
2018-11-06T12:35:05.157Z,17.34
2018-11-06T12:36:05.732Z,17.30
2018-11-06T12:37:50.823Z,17.31
2018-11-06T12:38:51.397Z,17.27
2018-11-06T12:40:36.497Z,17.31
2018-11-06T12:41:37.064Z,17.26
2018-11-06T12:43:22.162Z,17.36
2018-11-06T12:44:22.730Z,17.29
2018-11-06T12:46:07.822Z,17.33
2018-11-06T12:47:08.490Z,17.31
2018-11-06T12:48:53.580Z,17.27
2018-11-06T12:49:54.157Z,17.24
2018-11-06T12:51:39.246Z,17.33
2018-11-06T12:52:39.872Z,17.26
2018-11-06T12:54:24.960Z,17.29
2018-11-06T12:55:25.590Z,17.33
2018-11-06T12:57:10.675Z,17.34
2018-11-06T12:58:11.249Z,17.33
2018-11-06T12:59:56.341Z,17.29
2018-11-06T13:00:56.915Z,17.29
2018-11-06T13:02:42.008Z,17.33
2018-11-06T13:03:42.584Z,17.34
2018-11-06T13:05:27.679Z,17.41
2018-11-06T13:06:28.300Z,17.31
2018-11-06T13:08:13.392Z,17.31
2018-11-06T13:09:13.968Z,17.29
2018-11-06T13:10:59.059Z,17.36
2018-11-06T13:11:59.632Z,17.45
2018-11-06T13:13:44.723Z,17.33
2018-11-06T13:14:45.349Z,17.36
2018-11-06T13:16:30.438Z,17.29
2018-11-06T13:17:31.013Z,17.34
2018-11-06T13:19:16.144Z,17.41
2018-11-06T13:20:16.736Z,17.44
2018-11-06T13:22:01.863Z,17.42
2018-11-06T13:23:02.482Z,17.41
2018-11-06T13:24:47.618Z,17.34
2018-11-06T13:25:48.253Z,17.44
2018-11-06T13:27:33.384Z,17.46
2018-11-06T13:28:33.956Z,17.44
2018-11-06T13:30:19.046Z,17.42
2018-11-06T13:31:19.622Z,17.36
2018-11-06T13:33:04.713Z,17.46
2018-11-06T13:34:05.297Z,17.44
2018-11-06T13:35:50.328Z,17.46
2018-11-06T13:36:50.906Z,17.46
2018-11-06T13:38:36.000Z,17.45
2018-11-06T13:39:36.568Z,17.45
2018-11-06T13:41:21.618Z,17.42
2018-11-06T13:42:22.235Z,17.45
2018-11-06T13:44:07.596Z,17.41
2018-11-06T13:45:08.087Z,17.39
2018-11-06T13:46:53.026Z,17.42
2018-11-06T13:47:53.603Z,17.42
2018-11-06T13:49:38.696Z,17.45
2018-11-06T13:50:39.268Z,17.46
2018-11-06T13:52:24.359Z,17.42
2018-11-06T13:53:24.935Z,17.41
2018-11-06T13:55:10.025Z,17.38
2018-11-06T13:56:10.605Z,17.42
2018-11-06T13:57:55.692Z,17.45
2018-11-06T13:58:56.321Z,17.42
2018-11-06T14:00:41.407Z,17.39
2018-11-06T14:01:41.987Z,17.44
2018-11-06T14:03:27.124Z,17.44
2018-11-06T14:04:27.835Z,17.41
2018-11-06T14:06:12.838Z,17.45
2018-11-06T14:07:13.413Z,17.36
2018-11-06T14:08:58.545Z,17.44
2018-11-06T14:09:59.293Z,17.34
2018-11-06T14:11:44.312Z,17.46
2018-11-06T14:12:44.900Z,17.44
2018-11-06T14:14:30.068Z,17.41
2018-11-06T14:15:30.644Z,17.46
2018-11-06T14:17:15.685Z,17.44
2018-11-06T14:18:16.352Z,17.34
2018-11-06T14:20:01.443Z,17.36
2018-11-06T14:21:02.127Z,17.36
2018-11-06T14:22:47.160Z,17.44
2018-11-06T14:23:47.733Z,17.33
2018-11-06T14:25:32.824Z,17.33
2018-11-06T14:26:33.450Z,17.44
2018-11-06T14:28:18.540Z,17.44
2018-11-06T14:29:19.117Z,17.36
2018-11-06T14:31:04.206Z,17.44
2018-11-06T14:32:04.784Z,17.33
2018-11-06T14:33:49.822Z,17.39
2018-11-06T14:34:50.394Z,17.33
2018-11-06T14:36:40.537Z,17.45
2018-11-06T14:37:41.162Z,17.33
2018-11-06T14:39:26.252Z,17.30
2018-11-06T14:40:26.828Z,17.39
2018-11-06T14:42:11.925Z,17.36
2018-11-06T14:43:12.506Z,17.33
2018-11-06T14:44:57.591Z,17.34
2018-11-06T14:45:58.207Z,17.27
2018-11-06T14:47:43.305Z,17.33
2018-11-06T14:48:44.058Z,17.34
2018-11-06T14:50:29.049Z,17.27
2018-11-06T14:51:29.624Z,17.33
2018-11-06T14:53:14.716Z,17.36
2018-11-06T14:54:15.292Z,17.34
2018-11-06T14:56:00.430Z,17.29
2018-11-06T14:57:01.009Z,17.27
2018-11-06T14:58:46.097Z,17.33
2018-11-06T14:59:46.672Z,17.30
2018-11-06T15:01:31.763Z,17.33
2018-11-06T15:02:32.380Z,17.33
2018-11-06T15:04:17.470Z,17.24
2018-11-06T15:05:18.097Z,17.29
2018-11-06T15:07:03.085Z,17.29
2018-11-06T15:08:03.660Z,17.33
2018-11-06T15:09:48.759Z,17.26
2018-11-06T15:10:49.327Z,17.24
2018-11-06T15:12:34.397Z,17.31
2018-11-06T15:13:34.991Z,17.29
2018-11-06T15:15:20.084Z,17.34
2018-11-06T15:16:20.706Z,17.30
2018-11-06T15:18:05.797Z,17.29
2018-11-06T15:19:06.422Z,17.34
2018-11-06T15:20:51.488Z,17.31
2018-11-06T15:21:52.034Z,17.30
2018-11-06T15:23:37.123Z,17.33
2018-11-06T15:24:37.700Z,17.31
2018-11-06T15:26:22.844Z,17.38
2018-11-06T15:27:23.450Z,17.31
2018-11-06T15:29:08.545Z,17.31
2018-11-06T15:30:09.116Z,17.26
2018-11-06T15:31:54.206Z,17.38
2018-11-06T15:32:54.833Z,17.30
2018-11-06T15:34:39.978Z,17.34
2018-11-06T15:35:40.552Z,17.31
2018-11-06T15:37:25.682Z,17.30
2018-11-06T15:38:26.307Z,17.30
2018-11-06T15:40:11.396Z,17.30
2018-11-06T15:41:12.131Z,17.30
2018-11-06T15:42:57.297Z,17.31
2018-11-06T15:43:57.865Z,17.30
2018-11-06T15:45:42.954Z,17.34
2018-11-06T15:46:43.531Z,17.34
2018-11-06T15:48:28.664Z,17.26
2018-11-06T15:49:29.281Z,17.33
2018-11-06T15:51:14.321Z,17.30
2018-11-06T15:52:14.895Z,17.38
2018-11-06T15:53:59.938Z,17.41
2018-11-06T15:55:00.601Z,17.36
2018-11-06T15:56:45.695Z,17.24
2018-11-06T15:57:46.268Z,17.29
2018-11-06T15:59:31.359Z,17.30
2018-11-06T16:00:31.952Z,17.31
2018-11-06T16:02:17.027Z,17.31
2018-11-06T16:03:17.610Z,17.29
2018-11-06T16:05:02.884Z,17.30
2018-11-06T16:06:03.501Z,17.36
2018-11-06T16:07:48.597Z,17.38
2018-11-06T16:08:49.168Z,17.36
2018-11-06T16:10:34.420Z,17.38
2018-11-06T16:11:34.985Z,17.39
2018-11-06T16:13:20.074Z,17.34
2018-11-06T16:14:20.649Z,17.27
2018-11-06T16:16:05.941Z,17.27
2018-11-06T16:17:06.516Z,17.34
2018-11-06T16:18:51.607Z,17.23
2018-11-06T16:19:52.184Z,17.38
2018-11-06T16:21:37.274Z,17.24
2018-11-06T16:22:37.851Z,17.39
2018-11-06T16:24:22.981Z,17.27
2018-11-06T16:25:23.556Z,17.26
2018-11-06T16:27:08.697Z,17.27
2018-11-06T16:28:09.365Z,17.29
2018-11-06T16:29:54.495Z,17.33
2018-11-06T16:30:55.070Z,17.31
2018-11-06T16:32:40.206Z,17.29
2018-11-06T16:33:40.737Z,17.33
2018-11-06T16:35:25.877Z,17.34
2018-11-06T16:36:26.455Z,17.38
2018-11-06T16:38:11.583Z,17.42
2018-11-06T16:39:12.160Z,17.30
2018-11-06T16:40:57.250Z,17.31
2018-11-06T16:41:57.829Z,17.33
2018-11-06T16:43:43.008Z,17.30
2018-11-06T16:44:43.584Z,17.30
2018-11-06T16:46:28.722Z,17.29
2018-11-06T16:47:29.298Z,17.26
2018-11-06T16:49:14.335Z,17.27
2018-11-06T16:50:14.909Z,17.30
2018-11-06T16:51:59.998Z,17.39
2018-11-06T16:53:00.573Z,17.36
2018-11-06T16:54:45.813Z,17.26
2018-11-06T16:55:46.395Z,17.30
2018-11-06T16:57:31.531Z,17.27
2018-11-06T16:58:32.102Z,17.30
2018-11-06T17:00:17.297Z,17.24
2018-11-06T17:01:17.950Z,17.34
2018-11-06T17:03:02.806Z,17.33
2018-11-06T17:04:03.434Z,17.34
2018-11-06T17:05:48.571Z,17.36
2018-11-06T17:06:49.148Z,17.33
2018-11-06T17:08:34.339Z,17.30
2018-11-06T17:09:34.914Z,17.23
2018-11-06T17:11:20.004Z,17.30
2018-11-06T17:12:20.568Z,17.26
2018-11-06T17:14:05.608Z,17.26
2018-11-06T17:15:06.232Z,17.36
2018-11-06T17:16:51.324Z,17.27
2018-11-06T17:17:51.901Z,17.27
2018-11-06T17:19:37.033Z,17.27
2018-11-06T17:20:37.609Z,17.26
2018-11-06T17:22:22.648Z,17.38
2018-11-06T17:23:23.273Z,17.33
2018-11-06T17:25:08.315Z,17.34
2018-11-06T17:26:08.891Z,17.34
2018-11-06T17:27:54.079Z,17.33
2018-11-06T17:28:54.646Z,17.27
2018-11-06T17:30:39.734Z,17.36
2018-11-06T17:31:40.309Z,17.31
2018-11-06T17:33:25.407Z,17.30
2018-11-06T17:34:26.029Z,17.31
2018-11-06T17:36:11.106Z,17.36
2018-11-06T17:37:11.684Z,17.31
2018-11-06T17:38:56.770Z,17.42
2018-11-06T17:39:57.346Z,17.31
2018-11-06T17:41:42.388Z,17.38
2018-11-06T17:42:42.961Z,17.31
2018-11-06T17:44:33.102Z,17.38
2018-11-06T17:45:33.773Z,17.33
2018-11-06T17:47:18.721Z,17.45